createdAt,value
2019-05-29T00:00:16.620Z,11.57
2019-05-29T00:02:45.312Z,10.55
2019-05-29T00:05:14.336Z,11.00
2019-05-29T00:07:43.247Z,13.25
2019-05-29T00:10:12.364Z,16.50
2019-05-29T00:12:41.112Z,17.02
2019-05-29T00:15:10.396Z,15.83
2019-05-29T00:17:39.185Z,29.87
2019-05-29T00:20:08.286Z,36.35
2019-05-29T00:22:37.108Z,51.28
2019-05-29T00:25:06.735Z,60.98
2019-05-29T00:27:35.465Z,72.12
2019-05-29T00:30:06.816Z,72.15
2019-05-29T00:32:36.072Z,80.60
2019-05-29T00:35:08.390Z,87.17
2019-05-29T00:37:37.100Z,84.20
2019-05-29T00:40:08.761Z,88.27
2019-05-29T00:42:37.658Z,78.05
2019-05-29T00:45:09.522Z,71.20
2019-05-29T00:47:38.408Z,58.70
2019-05-29T00:50:08.268Z,59.30
2019-05-29T00:52:36.988Z,69.97
2019-05-29T00:55:06.711Z,71.47
2019-05-29T00:57:35.436Z,80.03
2019-05-29T01:00:05.970Z,69.42
2019-05-29T01:02:34.760Z,65.67
2019-05-29T01:05:04.489Z,73.10
2019-05-29T01:07:33.236Z,69.53
2019-05-29T01:10:01.906Z,72.67
2019-05-29T01:12:30.620Z,65.60
2019-05-29T01:14:59.276Z,55.65
2019-05-29T01:17:28.001Z,58.68
2019-05-29T01:19:56.729Z,65.32
2019-05-29T01:22:25.459Z,58.33
2019-05-29T01:24:54.151Z,62.80
2019-05-29T01:27:23.157Z,56.30
2019-05-29T01:29:51.917Z,61.45
2019-05-29T01:32:21.591Z,71.33
2019-05-29T01:34:50.504Z,75.55
2019-05-29T01:37:20.233Z,85.12
2019-05-29T01:39:48.980Z,88.22
2019-05-29T01:42:17.688Z,97.53
2019-05-29T01:44:46.414Z,92.22
2019-05-29T01:47:15.370Z,72.25
2019-05-29T01:49:44.120Z,68.12
2019-05-29T01:52:12.837Z,52.05
2019-05-29T01:54:41.503Z,38.95
2019-05-29T01:57:10.220Z,36.93
2019-05-29T01:59:38.978Z,38.13
2019-05-29T02:02:07.700Z,44.58
2019-05-29T02:04:36.347Z,41.00
2019-05-29T02:07:05.480Z,56.45
2019-05-29T02:09:34.199Z,49.67
2019-05-29T02:12:02.947Z,53.25
2019-05-29T02:14:31.604Z,57.65
2019-05-29T02:17:00.327Z,53.50
2019-05-29T02:19:29.056Z,55.48
2019-05-29T02:21:57.783Z,56.50
2019-05-29T02:24:27.448Z,67.37
2019-05-29T02:26:56.267Z,61.05
2019-05-29T02:29:24.965Z,68.42
2019-05-29T02:32:12.930Z,60.43
2019-05-29T02:34:41.653Z,68.97
2019-05-29T02:37:10.405Z,71.53
2019-05-29T02:39:39.100Z,79.85
2019-05-29T02:42:07.801Z,75.25
2019-05-29T02:44:37.366Z,63.85
2019-05-29T02:47:06.093Z,62.05
2019-05-29T02:49:34.755Z,59.03
2019-05-29T02:52:03.480Z,72.80
2019-05-29T02:54:32.519Z,79.35
2019-05-29T02:57:01.261Z,80.80
2019-05-29T02:59:31.759Z,79.45
2019-05-29T03:02:00.213Z,62.65
2019-05-29T03:04:30.255Z,73.10
2019-05-29T03:07:00.037Z,66.17
2019-05-29T03:09:30.523Z,64.22
2019-05-29T03:12:00.389Z,71.00
2019-05-29T03:14:29.772Z,57.83
2019-05-29T03:16:59.793Z,57.00
2019-05-29T03:19:30.160Z,59.73
2019-05-29T03:21:58.881Z,62.03
2019-05-29T03:24:28.670Z,59.75
2019-05-29T03:26:57.377Z,53.02
2019-05-29T03:29:26.554Z,64.10
2019-05-29T03:31:56.400Z,64.10
2019-05-29T03:34:28.513Z,64.37
2019-05-29T03:36:55.429Z,65.67
2019-05-29T03:39:24.255Z,60.73
2019-05-29T03:41:52.842Z,62.20
2019-05-29T03:44:21.561Z,65.12
2019-05-29T03:46:50.217Z,77.42
2019-05-29T03:49:18.937Z,79.32
2019-05-29T03:51:47.664Z,87.80
2019-05-29T03:54:16.384Z,79.25
2019-05-29T03:56:45.044Z,74.15
2019-05-29T03:59:13.713Z,51.10
2019-05-29T04:01:42.377Z,58.23
2019-05-29T04:04:11.041Z,58.30
2019-05-29T04:06:39.783Z,55.05
2019-05-29T04:09:08.501Z,47.45
2019-05-29T04:11:37.808Z,52.20
2019-05-29T04:14:06.991Z,38.88
2019-05-29T04:16:59.825Z,29.40
2019-05-29T04:19:46.696Z,16.25
2019-05-29T04:22:18.390Z,13.15
2019-05-29T04:24:48.178Z,8.55
2019-05-29T04:27:19.704Z,7.12
2019-05-29T04:29:49.190Z,9.33
2019-05-29T04:32:17.908Z,9.40
2019-05-29T04:34:46.667Z,9.25
2019-05-29T04:37:15.384Z,10.93
2019-05-29T04:39:44.032Z,14.55
2019-05-29T04:42:12.688Z,19.67
2019-05-29T04:44:41.507Z,21.97
2019-05-29T04:47:12.208Z,19.80
2019-05-29T04:49:40.629Z,24.65
2019-05-29T04:52:09.280Z,27.67
2019-05-29T04:54:39.977Z,31.40
2019-05-29T04:57:08.304Z,34.95
2019-05-29T04:59:37.172Z,49.35
2019-05-29T05:02:05.765Z,48.92
2019-05-29T05:04:35.196Z,44.48
2019-05-29T05:07:03.959Z,48.38
2019-05-29T05:09:33.342Z,43.15
2019-05-29T05:12:02.252Z,33.25
2019-05-29T05:14:31.486Z,30.60
2019-05-29T05:17:00.696Z,23.92
2019-05-29T05:19:29.700Z,23.85
2019-05-29T05:21:58.581Z,19.15
2019-05-29T05:24:27.240Z,14.65
2019-05-29T05:26:55.969Z,15.23
2019-05-29T05:29:24.832Z,16.73
2019-05-29T05:31:53.684Z,16.97
2019-05-29T05:34:22.576Z,20.50
2019-05-29T05:36:51.447Z,18.77
2019-05-29T05:39:20.306Z,20.05
2019-05-29T05:41:49.164Z,20.20
2019-05-29T05:44:18.011Z,21.50
2019-05-29T05:46:46.871Z,22.98
2019-05-29T05:49:15.748Z,24.35
2019-05-29T05:51:44.816Z,32.48
2019-05-29T05:54:13.576Z,27.37
2019-05-29T05:56:42.234Z,31.33
2019-05-29T05:59:11.167Z,32.38
2019-05-29T06:01:40.129Z,31.35
2019-05-29T06:04:08.842Z,38.73
2019-05-29T06:06:38.135Z,29.72
2019-05-29T06:09:08.452Z,30.48
2019-05-29T06:11:38.225Z,29.75
2019-05-29T06:14:07.118Z,32.67
2019-05-29T06:16:37.022Z,24.15
2019-05-29T06:19:05.826Z,39.08
2019-05-29T06:21:34.628Z,29.15
2019-05-29T06:24:03.356Z,30.85
2019-05-29T06:26:32.778Z,28.38
2019-05-29T06:29:01.568Z,31.85
2019-05-29T06:31:30.298Z,35.75
2019-05-29T06:33:58.961Z,32.42
2019-05-29T06:36:27.684Z,26.27
2019-05-29T06:38:56.515Z,32.42
2019-05-29T06:41:25.156Z,36.33
2019-05-29T06:43:53.845Z,28.40
2019-05-29T06:46:22.514Z,29.18
2019-05-29T06:48:59.401Z,33.45
2019-05-29T06:51:21.536Z,31.50
2019-05-29T06:53:50.270Z,28.15
2019-05-29T06:56:19.045Z,34.92
2019-05-29T06:58:48.489Z,38.63
2019-05-29T07:01:17.421Z,28.92
2019-05-29T07:03:46.152Z,26.75
2019-05-29T07:06:14.874Z,20.88
2019-05-29T07:08:47.923Z,26.25
2019-05-29T07:11:13.975Z,24.40
2019-05-29T07:13:45.327Z,20.65
2019-05-29T07:16:13.014Z,24.05
2019-05-29T07:19:20.615Z,24.30
2019-05-29T07:21:12.106Z,19.57
2019-05-29T07:23:41.225Z,23.92
2019-05-29T07:26:10.076Z,22.05
2019-05-29T07:28:59.826Z,21.55
2019-05-29T07:31:09.203Z,21.97
2019-05-29T07:33:38.935Z,17.52
2019-05-29T07:36:07.648Z,18.77
2019-05-29T07:38:37.617Z,21.33
2019-05-29T07:41:06.444Z,22.40
2019-05-29T07:43:35.180Z,24.70
2019-05-29T07:46:03.910Z,21.70
2019-05-29T07:48:32.570Z,31.05
2019-05-29T07:51:07.091Z,26.55
2019-05-29T07:53:33.696Z,19.57
2019-05-29T07:56:01.962Z,18.70
2019-05-29T07:58:30.704Z,21.75
2019-05-29T08:01:11.619Z,17.90
2019-05-29T08:03:29.891Z,19.23
2019-05-29T08:05:58.628Z,19.77
2019-05-29T08:08:27.383Z,19.40
2019-05-29T08:10:56.051Z,15.63
2019-05-29T08:13:24.708Z,16.40
2019-05-29T08:16:02.376Z,14.25
2019-05-29T08:18:23.816Z,15.83
2019-05-29T08:20:52.532Z,10.85
2019-05-29T08:23:21.192Z,13.70
2019-05-29T08:25:49.950Z,17.62
2019-05-29T08:28:18.604Z,16.40
2019-05-29T08:30:51.731Z,17.92
2019-05-29T08:33:17.644Z,22.42
2019-05-29T08:35:47.189Z,16.50
2019-05-29T08:38:16.668Z,21.35
2019-05-29T08:40:45.400Z,16.42
2019-05-29T08:43:14.165Z,14.78
2019-05-29T08:45:43.491Z,18.23
2019-05-29T08:48:12.384Z,19.05
2019-05-29T08:50:41.546Z,14.98
2019-05-29T08:53:10.357Z,19.73
2019-05-29T08:55:39.087Z,21.37
2019-05-29T08:58:07.879Z,14.03
2019-05-29T09:00:36.659Z,14.93
2019-05-29T09:03:05.447Z,13.75
2019-05-29T09:05:35.566Z,11.35
2019-05-29T09:08:04.293Z,11.70
2019-05-29T09:10:33.023Z,16.80
2019-05-29T09:13:04.881Z,7.80
2019-05-29T09:15:32.066Z,11.22
2019-05-29T09:18:00.748Z,14.58
2019-05-29T09:20:57.182Z,8.98
2019-05-29T09:22:59.816Z,15.00
2019-05-29T09:25:28.530Z,11.73
2019-05-29T09:27:57.185Z,12.05
2019-05-29T09:30:25.912Z,12.85
2019-05-29T09:32:54.569Z,8.65
2019-05-29T09:35:24.742Z,7.28
2019-05-29T09:37:54.160Z,8.08
2019-05-29T09:40:23.150Z,9.48
2019-05-29T09:42:51.889Z,13.88
2019-05-29T09:45:21.565Z,7.30
2019-05-29T09:47:50.419Z,12.58
2019-05-29T09:50:20.939Z,4.42
2019-05-29T09:52:49.790Z,7.92
2019-05-29T09:55:19.295Z,7.10
2019-05-29T09:57:48.018Z,7.85
2019-05-29T10:00:17.406Z,6.10
2019-05-29T10:02:46.062Z,13.30
2019-05-29T10:05:15.460Z,10.72
2019-05-29T10:07:44.185Z,10.55
2019-05-29T10:10:14.504Z,7.90
2019-05-29T10:12:43.225Z,10.30
2019-05-29T10:15:13.351Z,7.00
2019-05-29T10:17:42.069Z,8.50
2019-05-29T10:20:13.525Z,9.50
2019-05-29T10:22:42.237Z,8.60
2019-05-29T10:25:11.122Z,8.65
2019-05-29T10:27:39.838Z,8.53
2019-05-29T10:30:09.366Z,12.82
2019-05-29T10:32:38.123Z,8.13
2019-05-29T10:35:07.585Z,5.03
2019-05-29T10:37:36.334Z,8.20
2019-05-29T10:40:11.037Z,11.05
2019-05-29T10:42:39.691Z,15.35
2019-05-29T10:45:10.450Z,9.45
2019-05-29T10:47:39.249Z,13.50
2019-05-29T10:50:09.846Z,14.87
2019-05-29T10:52:38.727Z,9.33
2019-05-29T10:55:08.844Z,12.40
2019-05-29T10:57:37.576Z,14.40
2019-05-29T11:00:08.565Z,12.65
2019-05-29T11:02:37.291Z,11.20
2019-05-29T11:05:06.738Z,12.20
2019-05-29T11:07:35.528Z,10.82
2019-05-29T11:10:05.953Z,14.10
2019-05-29T11:12:34.679Z,12.03
2019-05-29T11:15:20.389Z,13.30
2019-05-29T11:17:34.484Z,14.30
2019-05-29T11:20:04.773Z,13.05
2019-05-29T11:22:33.462Z,13.55
2019-05-29T11:25:20.943Z,10.75
2019-05-29T11:27:32.505Z,10.88
2019-05-29T11:30:01.228Z,13.75
2019-05-29T11:32:29.949Z,11.60
2019-05-29T11:34:59.695Z,10.82
2019-05-29T11:37:28.510Z,10.32
2019-05-29T11:39:57.268Z,13.43
2019-05-29T11:42:27.901Z,10.75
2019-05-29T11:44:56.950Z,11.83
2019-05-29T11:47:25.673Z,7.90
2019-05-29T11:49:55.142Z,10.55
2019-05-29T11:52:25.196Z,7.67
2019-05-29T11:54:59.145Z,11.05
2019-05-29T11:57:25.547Z,6.67
2019-05-29T11:59:54.195Z,6.25
2019-05-29T12:02:22.865Z,7.15
2019-05-29T12:04:51.496Z,8.25
2019-05-29T12:07:20.162Z,9.43
2019-05-29T12:09:48.826Z,5.58
2019-05-29T12:12:17.477Z,11.70
2019-05-29T12:15:00.581Z,10.32
2019-05-29T12:17:16.478Z,9.75
2019-05-29T12:19:45.188Z,8.38
2019-05-29T12:22:13.874Z,8.53
2019-05-29T12:24:42.624Z,6.20
2019-05-29T12:27:11.347Z,8.35
2019-05-29T12:29:40.000Z,10.40
2019-05-29T12:32:10.724Z,6.95
2019-05-29T12:34:52.798Z,6.92
2019-05-29T12:37:09.434Z,9.58
2019-05-29T12:39:38.100Z,8.63
2019-05-29T12:42:06.917Z,8.45
2019-05-29T12:44:35.646Z,5.95
2019-05-29T12:47:04.545Z,11.00
2019-05-29T12:49:33.312Z,8.33
2019-05-29T12:52:02.511Z,5.62
2019-05-29T12:54:32.367Z,6.45
2019-05-29T12:57:02.297Z,9.13
2019-05-29T12:59:31.223Z,7.17
2019-05-29T13:02:00.569Z,10.80
2019-05-29T13:04:29.289Z,17.07
2019-05-29T13:06:58.646Z,5.70
2019-05-29T13:09:27.482Z,8.78
2019-05-29T13:11:56.538Z,13.22
2019-05-29T13:14:25.325Z,8.73
2019-05-29T13:16:54.717Z,8.35
2019-05-29T13:19:23.467Z,17.17
2019-05-29T13:21:55.128Z,12.23
2019-05-29T13:24:23.876Z,9.73
2019-05-29T13:26:52.604Z,7.37
2019-05-29T13:29:21.323Z,9.98
2019-05-29T13:31:49.986Z,8.95
2019-05-29T13:34:18.715Z,6.85
2019-05-29T13:36:47.549Z,9.65
2019-05-29T13:39:16.501Z,10.60
2019-05-29T13:41:46.747Z,8.68
2019-05-29T13:44:15.399Z,6.28
2019-05-29T13:46:44.121Z,9.48
2019-05-29T13:49:14.327Z,5.12
2019-05-29T13:51:43.025Z,9.75
2019-05-29T13:54:17.502Z,8.58
2019-05-29T13:56:43.077Z,9.55
2019-05-29T13:59:11.822Z,6.17
2019-05-29T14:01:42.155Z,8.08
2019-05-29T14:04:11.017Z,10.20
2019-05-29T14:06:39.801Z,7.17
2019-05-29T14:09:10.214Z,10.45
2019-05-29T14:11:39.010Z,5.30
2019-05-29T14:14:19.817Z,6.55
2019-05-29T14:16:49.933Z,5.25
2019-05-29T14:19:18.657Z,7.87
2019-05-29T14:22:07.071Z,8.50
2019-05-29T14:24:35.897Z,7.72
2019-05-29T14:27:05.473Z,3.98
2019-05-29T14:29:34.270Z,5.03
2019-05-29T14:32:03.112Z,5.92
2019-05-29T14:34:31.835Z,8.45
2019-05-29T14:37:03.209Z,6.90
2019-05-29T14:39:30.932Z,3.92
2019-05-29T14:41:59.716Z,3.90
2019-05-29T14:44:28.449Z,6.22
2019-05-29T14:46:57.516Z,6.47
2019-05-29T14:49:27.118Z,3.70
2019-05-29T14:51:56.219Z,6.05
2019-05-29T14:54:41.189Z,5.45
2019-05-29T14:57:00.713Z,5.58
2019-05-29T14:59:29.635Z,3.67
2019-05-29T15:02:24.408Z,4.28
2019-05-29T15:05:00.038Z,8.70
2019-05-29T15:10:26.828Z,5.78
2019-05-29T15:12:49.841Z,6.05
2019-05-29T15:15:21.412Z,5.97
2019-05-29T15:17:50.197Z,13.50
2019-05-29T15:20:19.300Z,8.65
2019-05-29T15:22:47.948Z,6.80
2019-05-29T15:25:23.959Z,6.62
2019-05-29T15:27:48.541Z,5.95
2019-05-29T15:30:22.246Z,5.78
2019-05-29T15:32:48.336Z,5.87
2019-05-29T15:35:19.951Z,6.47
2019-05-29T15:37:49.610Z,6.45
2019-05-29T15:40:18.479Z,8.78
2019-05-29T15:42:47.174Z,4.22
2019-05-29T15:45:18.029Z,11.30
2019-05-29T15:47:46.963Z,6.72
2019-05-29T15:50:16.527Z,6.45
2019-05-29T15:52:46.377Z,7.60
2019-05-29T15:55:28.199Z,4.55
2019-05-29T15:57:48.723Z,6.42
2019-05-29T16:00:17.851Z,7.73
2019-05-29T16:05:38.916Z,10.82
2019-05-29T16:08:08.025Z,4.58
2019-05-29T16:10:36.861Z,7.60
2019-05-29T16:13:05.656Z,5.80
2019-05-29T16:15:34.449Z,4.90
2019-05-29T16:19:00.464Z,6.83
2019-05-29T16:24:02.274Z,6.15
2019-05-29T16:29:29.777Z,6.17
2019-05-29T16:31:58.281Z,6.42
2019-05-29T16:34:26.966Z,4.47
2019-05-29T16:36:55.626Z,6.78
2019-05-29T16:39:24.498Z,10.80
2019-05-29T16:41:53.136Z,4.03
2019-05-29T16:44:27.344Z,7.80
2019-05-29T16:46:52.320Z,8.38
2019-05-29T16:49:21.374Z,7.47
2019-05-29T16:51:50.274Z,5.47
2019-05-29T16:54:19.207Z,6.60
2019-05-29T16:56:48.418Z,3.62
2019-05-29T16:59:19.224Z,3.58
2019-05-29T17:01:48.061Z,7.80
2019-05-29T17:04:17.685Z,2.02
2019-05-29T17:06:46.466Z,6.42
2019-05-29T17:09:16.336Z,4.12
2019-05-29T17:11:45.254Z,1.75
2019-05-29T17:14:14.387Z,3.40
2019-05-29T17:16:43.284Z,7.70
2019-05-29T17:19:12.421Z,2.58
2019-05-29T17:21:41.240Z,8.93
2019-05-29T17:24:10.013Z,5.00
2019-05-29T17:26:38.805Z,4.70
2019-05-29T17:29:07.591Z,2.08
2019-05-29T17:31:36.400Z,3.00
2019-05-29T17:34:05.307Z,6.78
2019-05-29T17:36:34.045Z,3.00
2019-05-29T17:39:03.351Z,4.17
2019-05-29T17:41:32.133Z,2.60
2019-05-29T17:44:02.289Z,4.50
2019-05-29T17:46:30.949Z,1.98
2019-05-29T17:48:59.732Z,4.25
2019-05-29T17:51:28.461Z,2.80
2019-05-29T17:53:57.323Z,4.55
2019-05-29T17:56:36.907Z,2.75
2019-05-29T17:59:06.006Z,3.20
2019-05-29T18:01:34.806Z,5.15
2019-05-29T18:04:03.538Z,3.17
2019-05-29T18:06:32.353Z,2.37
2019-05-29T18:09:01.113Z,3.60
2019-05-29T18:11:29.822Z,3.67
2019-05-29T18:14:01.952Z,1.55
2019-05-29T18:16:28.844Z,1.50
2019-05-29T18:18:57.575Z,4.25
2019-05-29T18:21:26.320Z,3.10
2019-05-29T18:23:55.039Z,5.28
2019-05-29T18:26:24.249Z,1.20
2019-05-29T18:28:53.209Z,3.92
2019-05-29T18:31:22.549Z,3.60
2019-05-29T18:33:51.456Z,3.12
2019-05-29T18:36:20.992Z,2.55
2019-05-29T18:38:49.830Z,4.67
2019-05-29T18:41:18.635Z,1.65
2019-05-29T18:43:47.485Z,2.12
2019-05-29T18:46:38.219Z,2.60
2019-05-29T18:49:07.145Z,2.45
2019-05-29T18:51:35.860Z,1.82
2019-05-29T18:54:04.586Z,3.22
2019-05-29T18:56:33.384Z,5.50
2019-05-29T18:59:02.107Z,2.25
2019-05-29T19:01:31.740Z,4.22
2019-05-29T19:04:04.809Z,2.37
2019-05-29T19:06:33.529Z,4.30
2019-05-29T19:09:02.925Z,2.35
2019-05-29T19:11:32.023Z,3.08
2019-05-29T19:14:00.728Z,1.67
2019-05-29T19:16:30.025Z,2.45
2019-05-29T19:18:58.843Z,1.42
2019-05-29T19:21:28.394Z,3.05
2019-05-29T19:23:57.415Z,3.27
2019-05-29T19:26:26.659Z,2.60
2019-05-29T19:28:58.192Z,1.98
2019-05-29T19:31:27.146Z,3.15
2019-05-29T19:33:55.960Z,3.58
2019-05-29T19:36:25.575Z,2.20
2019-05-29T19:38:54.344Z,5.58
2019-05-29T19:41:23.911Z,3.58
2019-05-29T19:43:52.859Z,6.33
2019-05-29T19:46:21.601Z,3.42
2019-05-29T19:48:50.386Z,2.50
2019-05-29T19:51:19.117Z,2.08
2019-05-29T19:53:47.842Z,2.17
2019-05-29T19:56:16.488Z,2.45
2019-05-29T19:58:45.209Z,1.82
2019-05-29T20:01:28.032Z,3.52
2019-05-29T20:03:44.430Z,1.20
2019-05-29T20:06:13.143Z,1.55
2019-05-29T20:08:41.882Z,4.25
2019-05-29T20:11:10.600Z,2.37
2019-05-29T20:13:39.326Z,2.42
2019-05-29T20:16:08.157Z,3.00
2019-05-29T20:18:36.913Z,5.12
2019-05-29T20:21:05.633Z,3.17
2019-05-29T20:23:34.625Z,2.17
2019-05-29T20:26:03.468Z,2.75
2019-05-29T20:28:32.169Z,1.82
2019-05-29T20:31:00.813Z,2.45
2019-05-29T20:33:30.375Z,2.52
2019-05-29T20:35:59.273Z,2.77
2019-05-29T20:38:27.993Z,3.05
2019-05-29T20:40:56.632Z,5.05
2019-05-29T20:43:25.668Z,5.37
2019-05-29T20:45:54.483Z,1.32
2019-05-29T20:48:23.201Z,3.37
2019-05-29T20:50:51.839Z,3.17
2019-05-29T20:53:20.605Z,5.28
2019-05-29T20:55:49.312Z,1.35
2019-05-29T20:58:24.690Z,3.08
2019-05-29T21:00:48.541Z,4.62
2019-05-29T21:03:17.252Z,7.83
2019-05-29T21:05:45.926Z,1.80
2019-05-29T21:08:14.644Z,3.20
2019-05-29T21:10:43.658Z,3.27
2019-05-29T21:13:12.523Z,3.22
2019-05-29T21:15:41.837Z,2.17
2019-05-29T21:18:10.667Z,1.98
2019-05-29T21:20:40.436Z,2.85
2019-05-29T21:23:09.212Z,2.47
2019-05-29T21:25:38.692Z,4.47
2019-05-29T21:28:07.572Z,6.50
2019-05-29T21:30:37.393Z,2.22
2019-05-29T21:33:06.212Z,3.80
2019-05-29T21:35:36.005Z,1.92
2019-05-29T21:38:04.750Z,2.80
2019-05-29T21:40:33.500Z,2.45
2019-05-29T21:43:02.230Z,2.22
2019-05-29T21:45:30.940Z,3.50
2019-05-29T21:47:59.655Z,4.35
2019-05-29T21:50:28.364Z,3.10
2019-05-29T21:52:57.053Z,5.22
2019-05-29T21:55:25.762Z,4.58
2019-05-29T21:57:54.409Z,4.03
2019-05-29T22:00:31.291Z,4.50
2019-05-29T22:02:59.914Z,4.62
2019-05-29T22:05:28.630Z,5.35
2019-05-29T22:07:57.446Z,4.42
2019-05-29T22:10:26.411Z,4.28
2019-05-29T22:12:56.471Z,3.85
2019-05-29T22:15:25.265Z,5.50
2019-05-29T22:17:54.939Z,6.17
2019-05-29T22:20:23.801Z,4.62
2019-05-29T22:22:53.086Z,5.85
2019-05-29T22:25:21.844Z,5.60
2019-05-29T22:27:51.245Z,6.25
2019-05-29T22:30:21.572Z,5.22
2019-05-29T22:32:51.215Z,7.58
2019-05-29T22:35:20.136Z,5.40
2019-05-29T22:37:48.778Z,6.65
2019-05-29T22:40:17.588Z,7.72
2019-05-29T22:42:46.314Z,7.92
2019-05-29T22:45:15.132Z,12.82
2019-05-29T22:47:43.884Z,14.05
2019-05-29T22:50:12.624Z,12.40
2019-05-29T22:52:41.328Z,12.68
2019-05-29T22:55:10.358Z,18.23
2019-05-29T22:57:39.009Z,19.77
2019-05-29T23:00:10.001Z,20.05
2019-05-29T23:02:38.719Z,19.00
2019-05-29T23:05:08.347Z,24.30
2019-05-29T23:07:37.069Z,30.80
2019-05-29T23:10:07.960Z,33.92
2019-05-29T23:12:36.680Z,38.92
2019-05-29T23:15:07.165Z,53.05
2019-05-29T23:17:35.896Z,50.38
2019-05-29T23:20:06.910Z,48.17
2019-05-29T23:22:35.661Z,46.10
2019-05-29T23:25:05.486Z,39.42
2019-05-29T23:27:34.811Z,41.58
2019-05-29T23:30:05.209Z,39.38
2019-05-29T23:32:33.856Z,33.38
2019-05-29T23:35:03.482Z,26.17
2019-05-29T23:37:32.257Z,27.95
2019-05-29T23:40:01.298Z,24.82
2019-05-29T23:42:30.017Z,18.37
2019-05-29T23:44:59.440Z,12.55
2019-05-29T23:47:28.287Z,15.75
2019-05-29T23:49:57.547Z,11.18
2019-05-29T23:52:26.336Z,13.78
2019-05-29T23:54:55.723Z,15.18
2019-05-29T23:57:24.600Z,10.38
